Terminal Aerodrome Forecast
Issued by NWS New Orleans/Baton Rouge, LA

Home | Current Version | Previous Version | Text Only | Print | Product List | Glossary On
Versions: 1 2 3 4 5 6 7 8 9 10 11 12 13 14 15 16 17 18 19 20 21 22
687
FTUS44 KLIX 200614 AAA
TAFBTR
TAF AMD
KBTR 200614Z 2006/2106 17006KT P6SM BKN003
      TEMPO 2006/2008 4SM BR
     FM200800 19004KT 3SM BR SCT004
      TEMPO 2009/2013 3/4SM BR BKN004
     FM201500 20006KT P6SM BKN025
     FM201800 21009KT P6SM SCT035 BKN120
     FM210100 20007KT P6SM SCT030 BKN050
      TEMPO 2103/2106 2SM TSRA BKN025CB=

USA.gov is the U.S. government's official web portal to all federal, state and local government web resources and services.